createdAt,value
2024-05-09T00:00:58.402Z,74.73
2024-05-09T00:01:58.405Z,74.80
2024-05-09T00:02:58.456Z,74.77
2024-05-09T00:03:58.560Z,74.95
2024-05-09T00:04:58.615Z,74.95
2024-05-09T00:05:58.587Z,74.89
2024-05-09T00:06:58.581Z,75.07
2024-05-09T00:07:58.656Z,75.13
2024-05-09T00:08:58.664Z,74.89
2024-05-09T00:09:58.697Z,75.09
2024-05-09T00:10:58.832Z,74.84
2024-05-09T00:11:58.909Z,74.63
2024-05-09T00:12:58.818Z,74.68
2024-05-09T00:13:58.972Z,74.76
2024-05-09T00:14:58.945Z,74.71
2024-05-09T00:15:59.038Z,74.60
2024-05-09T00:16:59.275Z,74.87
2024-05-09T00:17:59.354Z,74.88
2024-05-09T00:18:59.451Z,74.81
2024-05-09T00:19:59.424Z,75.15
2024-05-09T00:20:59.482Z,74.88
2024-05-09T00:21:59.516Z,74.91
2024-05-09T00:22:59.608Z,74.73
2024-05-09T00:23:59.676Z,74.80
2024-05-09T00:24:59.707Z,74.77
2024-05-09T00:25:59.799Z,74.59
2024-05-09T00:26:59.797Z,74.55
2024-05-09T00:27:59.881Z,74.46
2024-05-09T00:28:59.997Z,74.33
2024-05-09T00:30:00.024Z,74.52
2024-05-09T00:31:00.056Z,74.53
2024-05-09T00:32:00.357Z,74.43
2024-05-09T00:33:00.348Z,74.30
2024-05-09T00:34:00.382Z,74.90
2024-05-09T00:35:00.312Z,74.54
2024-05-09T00:36:00.329Z,74.54
2024-05-09T00:37:01.181Z,74.71
2024-05-09T00:38:00.813Z,74.44
2024-05-09T00:39:00.577Z,74.33
2024-05-09T00:40:00.631Z,74.15
2024-05-09T00:41:00.875Z,74.24
2024-05-09T00:42:00.820Z,74.19
2024-05-09T00:43:00.918Z,74.22
2024-05-09T00:44:01.076Z,74.16
2024-05-09T00:45:01.103Z,74.26
2024-05-09T00:46:01.206Z,74.11
2024-05-09T00:47:01.319Z,74.06
2024-05-09T00:48:01.658Z,74.13
2024-05-09T00:49:01.650Z,74.10
2024-05-09T00:50:01.631Z,74.03
2024-05-09T00:51:01.710Z,73.97
2024-05-09T00:52:01.706Z,73.80
2024-05-09T00:53:01.775Z,73.83
2024-05-09T00:54:01.793Z,73.58
2024-05-09T00:55:01.838Z,73.70
2024-05-09T00:56:01.951Z,73.67
2024-05-09T00:57:01.991Z,73.70
2024-05-09T00:58:01.996Z,73.66
2024-05-09T00:59:02.065Z,73.76
2024-05-09T01:00:02.109Z,73.61
2024-05-09T01:01:02.248Z,73.55
2024-05-09T01:02:02.390Z,73.12
2024-05-09T01:03:02.603Z,73.12
2024-05-09T01:04:02.439Z,73.49
2024-05-09T01:05:02.506Z,73.27
2024-05-09T01:06:02.486Z,73.04
2024-05-09T01:07:02.445Z,73.02
2024-05-09T01:08:02.761Z,72.87
2024-05-09T01:09:02.553Z,72.92
2024-05-09T01:10:03.228Z,72.83
2024-05-09T01:11:02.941Z,72.87
2024-05-09T01:12:02.976Z,72.79
2024-05-09T01:13:03.003Z,72.73
2024-05-09T01:14:03.015Z,72.63
2024-05-09T01:15:03.090Z,72.57
2024-05-09T01:16:03.164Z,72.43
2024-05-09T01:17:03.353Z,72.52
2024-05-09T01:18:03.546Z,72.52
2024-05-09T01:19:03.598Z,72.52
2024-05-09T01:20:06.246Z,72.54
2024-05-09T01:21:03.780Z,72.62
2024-05-09T01:22:03.837Z,72.65
2024-05-09T01:23:04.026Z,72.60
2024-05-09T01:24:03.965Z,72.64
2024-05-09T01:25:04.084Z,72.73
2024-05-09T01:26:04.157Z,72.68
2024-05-09T01:27:04.150Z,72.73
2024-05-09T01:28:04.289Z,72.74
2024-05-09T01:29:04.353Z,72.72
2024-05-09T01:30:09.128Z,72.73
2024-05-09T01:31:04.379Z,72.73
2024-05-09T01:32:04.577Z,72.73
2024-05-09T01:33:05.225Z,72.70
2024-05-09T01:34:04.454Z,72.70
2024-05-09T01:35:04.448Z,72.44
2024-05-09T01:36:04.487Z,72.46
2024-05-09T01:37:04.487Z,72.36
2024-05-09T01:38:04.626Z,72.36
2024-05-09T01:39:04.524Z,72.27
2024-05-09T01:40:07.371Z,72.22
2024-05-09T01:41:04.620Z,72.23
2024-05-09T01:42:04.596Z,72.17
2024-05-09T01:43:04.664Z,72.12
2024-05-09T01:44:04.736Z,72.14
2024-05-09T01:45:04.670Z,72.13
2024-05-09T01:46:04.716Z,72.15
2024-05-09T01:47:04.772Z,72.08
2024-05-09T01:48:05.076Z,72.20
2024-05-09T01:49:04.893Z,72.18
2024-05-09T01:50:08.717Z,72.17
2024-05-09T01:51:04.980Z,72.13
2024-05-09T01:52:04.841Z,72.51
2024-05-09T01:53:04.955Z,72.41
2024-05-09T01:54:04.882Z,72.56
2024-05-09T01:55:06.602Z,72.44
2024-05-09T01:56:04.997Z,72.21
2024-05-09T01:57:04.965Z,72.28
2024-05-09T01:58:05.085Z,72.33
2024-05-09T01:59:05.080Z,72.37
2024-05-09T02:00:07.742Z,72.47
2024-05-09T02:01:05.197Z,72.51
2024-05-09T02:02:05.401Z,72.53
2024-05-09T02:03:05.393Z,72.59
2024-05-09T02:04:05.393Z,72.85
2024-05-09T02:05:05.478Z,72.80
2024-05-09T02:06:05.497Z,72.75
2024-05-09T02:07:05.335Z,72.74
2024-05-09T02:08:05.429Z,72.83
2024-05-09T02:09:05.375Z,73.04
2024-05-09T02:10:13.582Z,72.80
2024-05-09T02:11:05.513Z,72.87
2024-05-09T02:12:05.706Z,72.82
2024-05-09T02:13:05.495Z,73.11
2024-05-09T02:14:05.573Z,72.91
2024-05-09T02:15:05.552Z,73.11
2024-05-09T02:16:05.598Z,73.15
2024-05-09T02:17:05.668Z,73.53
2024-05-09T02:18:05.854Z,73.49
2024-05-09T02:19:06.522Z,73.71
2024-05-09T02:20:06.287Z,73.64
2024-05-09T02:21:05.828Z,73.53
2024-05-09T02:22:05.835Z,73.82
2024-05-09T02:23:06.406Z,73.97
2024-05-09T02:24:05.888Z,74.18
2024-05-09T02:25:05.933Z,73.97
2024-05-09T02:26:06.054Z,74.01
2024-05-09T02:27:06.121Z,74.41
2024-05-09T02:28:06.068Z,74.29
2024-05-09T02:29:06.172Z,74.44
2024-05-09T02:30:12.095Z,74.42
2024-05-09T02:31:06.182Z,74.34
2024-05-09T02:32:06.266Z,74.35
2024-05-09T02:33:06.479Z,74.37
2024-05-09T02:34:06.427Z,74.11
2024-05-09T02:35:06.379Z,74.11
2024-05-09T02:36:06.407Z,74.50
2024-05-09T02:37:06.522Z,74.28
2024-05-09T02:38:06.602Z,74.17
2024-05-09T02:39:06.501Z,74.04
2024-05-09T02:40:09.258Z,74.05
2024-05-09T02:41:06.588Z,74.03
2024-05-09T02:42:06.582Z,73.98
2024-05-09T02:43:06.931Z,73.65
2024-05-09T02:44:06.684Z,73.76
2024-05-09T02:45:06.677Z,73.61
2024-05-09T02:46:06.736Z,73.66
2024-05-09T02:47:06.954Z,73.67
2024-05-09T02:48:07.115Z,73.64
2024-05-09T02:49:06.898Z,73.60
2024-05-09T02:50:08.224Z,73.66
2024-05-09T02:51:07.244Z,73.73
2024-05-09T02:52:07.106Z,73.76
2024-05-09T02:53:07.412Z,73.86
2024-05-09T02:54:07.240Z,74.11
2024-05-09T02:55:07.302Z,74.46
2024-05-09T02:56:07.517Z,74.90
2024-05-09T02:57:07.547Z,74.66
2024-05-09T02:58:07.617Z,74.71
2024-05-09T02:59:07.742Z,74.66
2024-05-09T03:00:12.258Z,74.52
2024-05-09T03:01:07.868Z,74.69
2024-05-09T03:02:07.958Z,74.79
2024-05-09T03:03:08.967Z,74.57
2024-05-09T03:04:08.159Z,74.48
2024-05-09T03:05:08.077Z,74.38
2024-05-09T03:06:08.079Z,74.24
2024-05-09T03:07:08.143Z,74.37
2024-05-09T03:08:08.372Z,74.58
2024-05-09T03:09:08.218Z,74.59
2024-05-09T03:10:18.048Z,74.69
2024-05-09T03:11:08.467Z,75.00
2024-05-09T03:12:08.486Z,74.93
2024-05-09T03:13:08.607Z,74.85
2024-05-09T03:14:08.457Z,74.79
2024-05-09T03:15:08.491Z,74.92
2024-05-09T03:16:08.543Z,74.87
2024-05-09T03:17:08.729Z,74.91
2024-05-09T03:18:08.827Z,74.84
2024-05-09T03:19:08.817Z,74.72
2024-05-09T03:20:17.292Z,74.77
2024-05-09T03:21:08.992Z,74.89
2024-05-09T03:22:08.836Z,74.79
2024-05-09T03:23:10.031Z,75.03
2024-05-09T03:24:09.104Z,75.10
2024-05-09T03:25:09.226Z,75.26
2024-05-09T03:26:09.402Z,75.20
2024-05-09T03:27:09.478Z,75.27
2024-05-09T03:28:09.566Z,75.35
2024-05-09T03:29:09.765Z,75.52
2024-05-09T03:30:10.047Z,75.50
2024-05-09T03:31:09.891Z,75.35
2024-05-09T03:32:10.105Z,75.70
2024-05-09T03:33:10.415Z,75.50
2024-05-09T03:34:10.174Z,75.36
2024-05-09T03:35:10.268Z,75.28
2024-05-09T03:36:11.408Z,75.19
2024-05-09T03:37:10.324Z,75.29
2024-05-09T03:38:10.498Z,74.98
2024-05-09T03:39:10.452Z,74.90
2024-05-09T03:40:17.568Z,74.74
2024-05-09T03:41:10.563Z,74.56
2024-05-09T03:42:10.582Z,74.60
2024-05-09T03:43:10.591Z,74.63
2024-05-09T03:44:10.696Z,74.68
2024-05-09T03:45:10.678Z,74.55
2024-05-09T03:46:10.726Z,74.48
2024-05-09T03:47:10.812Z,74.69
2024-05-09T03:48:11.407Z,74.55
2024-05-09T03:49:10.984Z,74.94
2024-05-09T03:50:18.280Z,75.20
2024-05-09T03:51:11.187Z,75.29
2024-05-09T03:52:11.118Z,75.55
2024-05-09T03:53:11.396Z,75.55
2024-05-09T03:54:11.266Z,75.42
2024-05-09T03:55:11.332Z,75.66
2024-05-09T03:56:11.395Z,76.09
2024-05-09T03:57:11.414Z,75.90
2024-05-09T03:58:11.508Z,75.90
2024-05-09T03:59:11.561Z,75.81
2024-05-09T04:00:17.896Z,75.70
2024-05-09T04:01:11.728Z,75.69
2024-05-09T04:02:11.823Z,75.85
2024-05-09T04:03:13.143Z,75.90
2024-05-09T04:04:11.810Z,75.65
2024-05-09T04:05:11.847Z,75.74
2024-05-09T04:06:11.849Z,75.79
2024-05-09T04:07:11.896Z,75.53
2024-05-09T04:08:12.084Z,75.58
2024-05-09T04:09:11.985Z,75.46
2024-05-09T04:10:20.692Z,75.54
2024-05-09T04:11:12.193Z,75.46
2024-05-09T04:12:12.342Z,75.51
2024-05-09T04:13:12.232Z,75.60
2024-05-09T04:14:12.264Z,75.48
2024-05-09T04:15:13.586Z,75.39
2024-05-09T04:16:12.318Z,75.31
2024-05-09T04:17:12.500Z,75.20
2024-05-09T04:18:12.749Z,75.09
2024-05-09T04:19:12.687Z,75.31
2024-05-09T04:20:21.364Z,75.08
2024-05-09T04:21:12.696Z,75.61
2024-05-09T04:22:12.687Z,75.56
2024-05-09T04:23:13.553Z,75.40
2024-05-09T04:24:12.767Z,75.44
2024-05-09T04:25:12.825Z,75.23
2024-05-09T04:26:12.982Z,75.07
2024-05-09T04:27:12.947Z,75.53
2024-05-09T04:28:13.055Z,75.38
2024-05-09T04:29:13.162Z,75.18
2024-05-09T04:30:21.598Z,75.07
2024-05-09T04:31:13.321Z,74.97
2024-05-09T04:32:13.440Z,75.17
2024-05-09T04:33:14.626Z,74.89
2024-05-09T04:34:13.517Z,74.89
2024-05-09T04:35:13.601Z,75.18
2024-05-09T04:36:13.532Z,75.14
2024-05-09T04:37:13.605Z,75.09
2024-05-09T04:38:14.505Z,74.73
2024-05-09T04:39:13.768Z,74.94
2024-05-09T04:40:24.142Z,74.98
2024-05-09T04:41:13.959Z,75.32
2024-05-09T04:42:13.970Z,75.14
2024-05-09T04:43:14.195Z,75.00
2024-05-09T04:44:14.167Z,75.00
2024-05-09T04:45:14.123Z,75.16
2024-05-09T04:46:14.213Z,74.94
2024-05-09T04:47:14.314Z,75.28
2024-05-09T04:48:14.588Z,75.38
2024-05-09T04:49:14.562Z,75.21
2024-05-09T04:50:21.194Z,75.08
2024-05-09T04:51:14.462Z,74.98
2024-05-09T04:52:14.449Z,74.93
2024-05-09T04:53:14.628Z,74.82
2024-05-09T04:54:26.063Z,74.76
2024-05-09T04:55:14.580Z,74.53
2024-05-09T04:56:14.603Z,74.57
2024-05-09T04:57:14.650Z,74.66
2024-05-09T04:58:14.706Z,74.66
2024-05-09T04:59:14.798Z,74.84
2024-05-09T05:00:21.723Z,74.91
2024-05-09T05:01:14.979Z,75.16
2024-05-09T05:02:15.008Z,74.96
2024-05-09T05:03:16.285Z,75.28
2024-05-09T05:04:15.245Z,75.69
2024-05-09T05:05:15.533Z,75.42
2024-05-09T05:06:15.159Z,75.10
2024-05-09T05:07:15.202Z,75.06
2024-05-09T05:08:15.830Z,74.86
2024-05-09T05:09:23.886Z,75.05
2024-05-09T05:10:33.074Z,75.13
2024-05-09T05:11:25.004Z,75.02
2024-05-09T05:12:25.132Z,75.07
2024-05-09T05:13:25.354Z,75.27
2024-05-09T05:14:24.998Z,75.35
2024-05-09T05:15:24.997Z,75.34
2024-05-09T05:16:25.027Z,75.74
2024-05-09T05:17:25.129Z,75.43
2024-05-09T05:18:25.139Z,75.43
2024-05-09T05:19:25.219Z,75.46
2024-05-09T05:20:32.570Z,75.44
2024-05-09T05:21:25.186Z,75.31
2024-05-09T05:22:25.124Z,75.26
2024-05-09T05:23:25.209Z,75.30
2024-05-09T05:24:25.172Z,75.32
2024-05-09T05:25:25.206Z,75.15
2024-05-09T05:26:25.279Z,75.55
2024-05-09T05:27:25.267Z,75.40
2024-05-09T05:28:25.319Z,75.05
2024-05-09T05:29:25.369Z,74.98
2024-05-09T05:30:29.235Z,75.09
2024-05-09T05:31:25.363Z,75.20
2024-05-09T05:32:25.503Z,75.02
2024-05-09T05:33:25.442Z,75.14
2024-05-09T05:34:25.393Z,74.94
2024-05-09T05:35:25.554Z,74.85
2024-05-09T05:36:25.391Z,74.57
2024-05-09T05:37:25.415Z,74.45
2024-05-09T05:38:28.190Z,74.53
2024-05-09T05:39:25.423Z,74.26
2024-05-09T05:40:33.196Z,73.87
2024-05-09T05:41:25.532Z,73.84
2024-05-09T05:42:25.451Z,73.18
2024-05-09T05:43:25.464Z,73.08
2024-05-09T05:44:25.540Z,72.95
2024-05-09T05:45:25.506Z,72.53
2024-05-09T05:46:25.519Z,72.65
2024-05-09T05:47:25.704Z,72.73
2024-05-09T05:48:25.685Z,72.76
2024-05-09T05:49:25.691Z,72.96
2024-05-09T05:50:32.484Z,72.38
2024-05-09T05:51:25.626Z,72.89
2024-05-09T05:52:25.619Z,73.45
2024-05-09T05:53:25.645Z,72.59
2024-05-09T05:54:25.632Z,73.07
2024-05-09T05:55:25.638Z,73.15
2024-05-09T05:56:25.683Z,73.46
2024-05-09T05:57:25.651Z,73.11
2024-05-09T05:58:25.652Z,72.76
2024-05-09T05:59:25.691Z,72.44
2024-05-09T06:00:30.290Z,72.30
2024-05-09T06:01:25.758Z,71.94
2024-05-09T06:02:25.802Z,71.70
2024-05-09T06:03:25.743Z,71.80
2024-05-09T06:04:25.751Z,71.97
2024-05-09T06:05:27.666Z,71.89
2024-05-09T06:06:25.730Z,72.05
2024-05-09T06:07:25.745Z,72.29
2024-05-09T06:08:28.853Z,71.88
2024-05-09T06:09:25.801Z,71.55
2024-05-09T06:10:30.485Z,71.62
2024-05-09T06:11:26.074Z,71.99
2024-05-09T06:12:26.037Z,71.91
2024-05-09T06:13:25.901Z,71.84
2024-05-09T06:14:25.944Z,71.63
2024-05-09T06:15:25.932Z,70.94
2024-05-09T06:16:25.943Z,71.03
2024-05-09T06:17:26.176Z,71.12
2024-05-09T06:18:26.307Z,71.16
2024-05-09T06:19:26.340Z,70.60
2024-05-09T06:20:34.368Z,69.53
2024-05-09T06:21:26.074Z,68.92
2024-05-09T06:22:25.997Z,69.18
2024-05-09T06:23:26.070Z,69.11
2024-05-09T06:24:26.005Z,69.55
2024-05-09T06:25:25.999Z,69.36
2024-05-09T06:26:26.061Z,69.36
2024-05-09T06:27:25.959Z,68.93
2024-05-09T06:28:25.956Z,68.98
2024-05-09T06:29:26.139Z,68.89
2024-05-09T06:30:34.790Z,68.62
2024-05-09T06:31:25.923Z,67.67
2024-05-09T06:32:26.062Z,67.89
2024-05-09T06:33:26.233Z,68.45
2024-05-09T06:34:26.068Z,67.85
2024-05-09T06:35:25.900Z,67.68
2024-05-09T06:36:25.851Z,67.83
2024-05-09T06:37:25.855Z,67.36
2024-05-09T06:38:25.879Z,67.64
2024-05-09T06:39:25.814Z,67.21
2024-05-09T06:40:34.283Z,66.72
2024-05-09T06:41:25.826Z,66.65
2024-05-09T06:42:25.779Z,67.18
2024-05-09T06:43:25.788Z,67.03
2024-05-09T06:44:25.797Z,66.53
2024-05-09T06:45:25.759Z,66.92
2024-05-09T06:46:25.731Z,67.11
2024-05-09T06:47:25.826Z,66.31
2024-05-09T06:48:25.954Z,66.39
2024-05-09T06:49:25.827Z,66.23
2024-05-09T06:50:28.391Z,66.20
2024-05-09T06:51:25.761Z,66.52
2024-05-09T06:52:25.670Z,66.20
2024-05-09T06:53:25.704Z,66.41
2024-05-09T06:54:25.663Z,66.15
2024-05-09T06:55:25.632Z,64.94
2024-05-09T06:56:25.630Z,65.25
2024-05-09T06:57:25.581Z,65.52
2024-05-09T06:58:25.575Z,65.82
2024-05-09T06:59:25.744Z,65.74
2024-05-09T07:00:34.459Z,66.21
2024-05-09T07:01:25.511Z,66.45
2024-05-09T07:02:25.599Z,66.49
2024-05-09T07:03:25.658Z,65.48
2024-05-09T07:04:25.518Z,66.04
2024-05-09T07:05:25.731Z,66.12
2024-05-09T07:06:25.406Z,66.39
2024-05-09T07:07:25.410Z,66.35
2024-05-09T07:08:25.457Z,65.61
2024-05-09T07:09:25.391Z,65.34
2024-05-09T07:10:32.411Z,66.41
2024-05-09T07:11:25.526Z,65.96
2024-05-09T07:12:25.536Z,66.76
2024-05-09T07:13:25.425Z,66.42
2024-05-09T07:14:25.454Z,66.84
2024-05-09T07:15:25.449Z,66.84
2024-05-09T07:16:25.478Z,67.52
2024-05-09T07:17:25.612Z,68.10
2024-05-09T07:18:25.599Z,68.08
2024-05-09T07:19:25.587Z,67.53
2024-05-09T07:20:33.769Z,67.97
2024-05-09T07:21:25.526Z,67.38
2024-05-09T07:22:25.471Z,66.90
2024-05-09T07:23:25.507Z,67.01
2024-05-09T07:24:25.456Z,67.26
2024-05-09T07:25:25.461Z,66.12
2024-05-09T07:26:25.503Z,66.85
2024-05-09T07:27:25.461Z,66.56
2024-05-09T07:28:25.449Z,65.45
2024-05-09T07:29:25.509Z,65.76
2024-05-09T07:30:32.832Z,65.11
2024-05-09T07:31:25.414Z,64.05
2024-05-09T07:32:25.492Z,63.82
2024-05-09T07:33:25.518Z,64.83
2024-05-09T07:34:25.564Z,63.78
2024-05-09T07:35:25.912Z,63.62
2024-05-09T07:36:25.260Z,63.95
2024-05-09T07:37:25.205Z,62.36
2024-05-09T07:38:25.215Z,62.80
2024-05-09T07:39:25.154Z,63.42
2024-05-09T07:40:32.943Z,62.83
2024-05-09T07:41:25.207Z,63.11
2024-05-09T07:42:25.056Z,61.61
2024-05-09T07:43:25.078Z,60.94
2024-05-09T07:44:25.095Z,61.82
2024-05-09T07:45:43.024Z,60.87
2024-05-09T07:47:20.736Z,60.98
2024-05-09T07:48:56.880Z,59.98
2024-05-09T07:53:30.562Z,60.51
2024-05-09T07:54:23.885Z,60.53
2024-05-09T07:55:25.077Z,59.60
2024-05-09T07:56:25.876Z,60.73
2024-05-09T07:57:24.886Z,59.80
2024-05-09T07:58:24.792Z,59.85
2024-05-09T07:59:24.779Z,60.09
2024-05-09T08:00:31.020Z,59.37
2024-05-09T08:01:24.859Z,59.13
2024-05-09T08:02:24.899Z,58.60
2024-05-09T08:03:24.769Z,59.94
2024-05-09T08:04:26.679Z,59.88
2024-05-09T08:05:24.752Z,58.62
2024-05-09T08:06:24.658Z,58.28
2024-05-09T08:07:24.589Z,59.44
2024-05-09T08:08:24.520Z,58.35
2024-05-09T08:09:24.483Z,57.66
2024-05-09T08:10:27.538Z,57.84
2024-05-09T08:11:24.739Z,57.35
2024-05-09T08:12:24.637Z,58.95
2024-05-09T08:13:24.726Z,59.63
2024-05-09T08:14:24.738Z,60.02
2024-05-09T08:15:24.651Z,60.36
2024-05-09T08:16:24.847Z,60.19
2024-05-09T08:17:24.911Z,61.00
2024-05-09T08:18:24.975Z,61.24
2024-05-09T08:19:24.829Z,60.23
2024-05-09T08:20:31.055Z,59.91
2024-05-09T08:21:24.802Z,59.74
2024-05-09T08:22:24.787Z,59.94
2024-05-09T08:23:24.775Z,60.25
2024-05-09T08:24:24.735Z,60.89
2024-05-09T08:25:24.804Z,61.56
2024-05-09T08:26:24.698Z,63.24
2024-05-09T08:27:24.665Z,61.00
2024-05-09T08:28:24.739Z,58.95
2024-05-09T08:29:24.627Z,57.90
2024-05-09T08:30:32.527Z,57.32
2024-05-09T08:31:24.679Z,57.50
2024-05-09T08:32:24.595Z,57.38
2024-05-09T08:33:24.650Z,57.91
2024-05-09T08:34:24.586Z,58.35
2024-05-09T08:35:24.464Z,58.11
2024-05-09T08:36:24.754Z,58.43
2024-05-09T08:37:27.847Z,58.55
2024-05-09T08:38:24.322Z,58.08
2024-05-09T08:39:24.275Z,57.48
2024-05-09T08:40:31.042Z,54.72
2024-05-09T08:41:24.168Z,53.74
2024-05-09T08:42:24.116Z,53.39
2024-05-09T08:43:24.152Z,53.93
2024-05-09T08:44:24.033Z,54.86
2024-05-09T08:45:24.046Z,55.08
2024-05-09T08:46:24.040Z,55.94
2024-05-09T08:47:24.034Z,56.52
2024-05-09T08:48:24.137Z,55.37
2024-05-09T08:49:23.953Z,54.71
2024-05-09T08:50:31.855Z,56.20
2024-05-09T08:51:23.790Z,57.29
2024-05-09T08:52:23.732Z,57.55
2024-05-09T08:53:23.715Z,57.59
2024-05-09T08:54:23.692Z,56.96
2024-05-09T08:55:23.665Z,58.06
2024-05-09T08:56:23.652Z,56.42
2024-05-09T08:57:23.641Z,55.55
2024-05-09T08:58:23.623Z,55.29
2024-05-09T08:59:23.581Z,54.90
2024-05-09T09:00:33.691Z,55.18
2024-05-09T09:01:23.645Z,54.75
2024-05-09T09:02:23.571Z,54.39
2024-05-09T09:03:23.464Z,54.78
2024-05-09T09:04:23.543Z,54.53
2024-05-09T09:05:23.467Z,54.06
2024-05-09T09:06:23.316Z,54.48
2024-05-09T09:07:23.395Z,55.15
2024-05-09T09:08:23.284Z,56.35
2024-05-09T09:09:23.270Z,56.85
2024-05-09T09:10:29.751Z,57.09
2024-05-09T09:11:23.244Z,56.45
2024-05-09T09:12:23.214Z,56.83
2024-05-09T09:13:23.236Z,56.16
2024-05-09T09:14:23.126Z,54.75
2024-05-09T09:15:23.196Z,55.40
2024-05-09T09:16:23.375Z,55.33
2024-05-09T09:17:23.130Z,54.82
2024-05-09T09:18:23.108Z,54.86
2024-05-09T09:19:23.253Z,55.05
2024-05-09T09:20:28.711Z,54.75
2024-05-09T09:21:22.896Z,55.18
2024-05-09T09:22:22.889Z,54.21
2024-05-09T09:23:22.855Z,53.96
2024-05-09T09:24:22.744Z,53.45
2024-05-09T09:25:22.703Z,54.21
2024-05-09T09:26:22.622Z,54.29
2024-05-09T09:27:22.629Z,53.55
2024-05-09T09:28:22.579Z,52.30
2024-05-09T09:29:22.522Z,51.79
2024-05-09T09:30:34.436Z,52.53
2024-05-09T09:31:22.495Z,53.44
2024-05-09T09:32:22.430Z,53.18
2024-05-09T09:33:22.461Z,53.07
2024-05-09T09:34:22.444Z,53.03
2024-05-09T09:35:22.299Z,52.76
2024-05-09T09:36:22.237Z,51.95
2024-05-09T09:37:22.207Z,52.67
2024-05-09T09:38:22.172Z,53.87
2024-05-09T09:39:22.147Z,53.43
2024-05-09T09:40:22.424Z,52.96
2024-05-09T09:41:22.040Z,54.84
2024-05-09T09:42:22.007Z,53.29
2024-05-09T09:43:22.589Z,54.55
2024-05-09T09:44:21.959Z,54.19
2024-05-09T09:45:21.951Z,55.98
2024-05-09T09:46:21.943Z,54.77
2024-05-09T09:47:21.982Z,55.43
2024-05-09T09:48:22.372Z,55.68
2024-05-09T09:49:21.935Z,55.36
2024-05-09T09:50:27.728Z,53.66
2024-05-09T09:51:21.752Z,53.02
2024-05-09T09:52:21.922Z,53.30
2024-05-09T09:53:21.717Z,54.08
2024-05-09T09:54:21.637Z,52.66
2024-05-09T09:55:21.697Z,53.72
2024-05-09T09:56:21.589Z,55.58
2024-05-09T09:57:21.527Z,55.52
2024-05-09T09:58:21.646Z,54.13
2024-05-09T09:59:21.517Z,56.60
2024-05-09T10:00:27.112Z,56.20
2024-05-09T10:01:21.597Z,55.61
2024-05-09T10:02:21.675Z,55.16
2024-05-09T10:03:21.651Z,57.21
2024-05-09T10:04:21.500Z,56.24
2024-05-09T10:05:21.563Z,54.78
2024-05-09T10:06:21.334Z,52.63
2024-05-09T10:07:21.385Z,54.16
2024-05-09T10:08:21.268Z,53.28
2024-05-09T10:09:21.220Z,53.74
2024-05-09T10:10:27.349Z,52.73
2024-05-09T10:11:21.247Z,53.52
2024-05-09T10:12:21.187Z,53.97
2024-05-09T10:13:21.349Z,53.71
2024-05-09T10:14:21.042Z,54.88
2024-05-09T10:15:21.090Z,54.52
2024-05-09T10:16:21.176Z,53.63
2024-05-09T10:17:21.010Z,53.30
2024-05-09T10:18:21.041Z,54.91
2024-05-09T10:19:20.976Z,54.97
2024-05-09T10:20:24.768Z,56.64
2024-05-09T10:21:20.812Z,54.23
2024-05-09T10:22:20.751Z,54.50
2024-05-09T10:23:20.690Z,55.27
2024-05-09T10:24:20.650Z,55.22
2024-05-09T10:25:20.803Z,54.66
2024-05-09T10:26:20.582Z,54.90
2024-05-09T10:27:20.544Z,54.25
2024-05-09T10:28:20.523Z,52.55
2024-05-09T10:29:20.443Z,51.95
2024-05-09T10:30:26.127Z,51.19
2024-05-09T10:31:20.463Z,50.34
2024-05-09T10:32:20.371Z,50.33
2024-05-09T10:33:20.429Z,51.37
2024-05-09T10:34:20.704Z,49.83
2024-05-09T10:35:20.246Z,51.08
2024-05-09T10:36:20.161Z,50.41
2024-05-09T10:37:20.272Z,50.60
2024-05-09T10:38:20.091Z,50.81
2024-05-09T10:39:21.302Z,51.63
2024-05-09T10:40:26.037Z,52.13
2024-05-09T10:41:19.974Z,50.98
2024-05-09T10:42:19.953Z,53.83
2024-05-09T10:43:20.192Z,51.94
2024-05-09T10:44:19.881Z,52.29
2024-05-09T10:45:19.925Z,51.53
2024-05-09T10:46:20.304Z,51.20
2024-05-09T10:47:19.840Z,52.49
2024-05-09T10:48:19.828Z,52.88
2024-05-09T10:49:19.772Z,52.41
2024-05-09T10:50:25.723Z,53.54
2024-05-09T10:51:20.757Z,52.92
2024-05-09T10:52:19.730Z,52.28
2024-05-09T10:53:19.567Z,52.33
2024-05-09T10:54:19.501Z,51.95
2024-05-09T10:55:19.564Z,53.04
2024-05-09T10:56:19.370Z,51.97
2024-05-09T10:57:19.316Z,52.21
2024-05-09T10:58:19.343Z,51.99
2024-05-09T10:59:19.240Z,51.41
2024-05-09T11:00:27.453Z,50.71
2024-05-09T11:01:19.206Z,52.00
2024-05-09T11:02:19.239Z,51.21
2024-05-09T11:03:19.165Z,52.17
2024-05-09T11:04:19.178Z,51.13
2024-05-09T11:05:19.228Z,50.99
2024-05-09T11:06:18.899Z,51.94
2024-05-09T11:07:18.938Z,51.92
2024-05-09T11:08:18.805Z,51.18
2024-05-09T11:09:18.749Z,51.43
2024-05-09T11:10:27.114Z,50.94
2024-05-09T11:11:18.692Z,51.79
2024-05-09T11:12:20.603Z,49.67
2024-05-09T11:13:18.581Z,50.78
2024-05-09T11:14:18.491Z,50.70
2024-05-09T11:15:18.589Z,50.05
2024-05-09T11:16:18.494Z,50.13
2024-05-09T11:17:18.387Z,51.09
2024-05-09T11:18:19.794Z,50.60
2024-05-09T11:19:18.345Z,50.33
2024-05-09T11:20:26.761Z,52.15
2024-05-09T11:21:18.144Z,52.77
2024-05-09T11:22:18.115Z,52.15
2024-05-09T11:23:18.055Z,52.60
2024-05-09T11:24:18.007Z,53.60
2024-05-09T11:25:18.072Z,51.73
2024-05-09T11:26:17.894Z,51.46
2024-05-09T11:27:17.856Z,51.16
2024-05-09T11:28:17.944Z,50.91
2024-05-09T11:29:19.613Z,50.73
2024-05-09T11:30:26.584Z,50.87
2024-05-09T11:31:18.044Z,50.96
2024-05-09T11:32:17.702Z,51.82
2024-05-09T11:33:17.681Z,50.85
2024-05-09T11:34:17.633Z,51.38
2024-05-09T11:35:17.638Z,49.95
2024-05-09T11:36:17.522Z,51.38
2024-05-09T11:37:17.727Z,50.79
2024-05-09T11:38:17.462Z,50.85
2024-05-09T11:39:17.427Z,51.03
2024-05-09T11:40:25.171Z,51.35
2024-05-09T11:41:17.400Z,51.64
2024-05-09T11:42:17.359Z,51.57
2024-05-09T11:43:17.442Z,52.68
2024-05-09T11:44:17.264Z,52.03
2024-05-09T11:45:17.296Z,52.88
2024-05-09T11:46:17.402Z,52.73
2024-05-09T11:47:17.203Z,51.54
2024-05-09T11:48:17.188Z,51.35
2024-05-09T11:49:17.223Z,50.64
2024-05-09T11:50:26.732Z,50.76
2024-05-09T11:51:16.973Z,51.18
2024-05-09T11:52:17.141Z,52.40
2024-05-09T11:53:16.906Z,50.91
2024-05-09T11:54:16.872Z,52.06
2024-05-09T11:55:17.033Z,52.15
2024-05-09T11:56:16.815Z,51.27
2024-05-09T11:57:16.799Z,51.78
2024-05-09T11:58:17.000Z,52.47
2024-05-09T11:59:16.713Z,51.56
2024-05-09T12:00:24.610Z,50.61
2024-05-09T12:01:16.817Z,50.53
2024-05-09T12:02:17.033Z,50.43
2024-05-09T12:03:16.725Z,50.66
2024-05-09T12:04:16.916Z,50.93
2024-05-09T12:05:16.848Z,51.91
2024-05-09T12:06:16.727Z,52.56
2024-05-09T12:07:16.616Z,53.85
2024-05-09T12:08:16.604Z,54.04
2024-05-09T12:09:16.500Z,53.93
2024-05-09T12:10:19.872Z,53.50
2024-05-09T12:11:16.774Z,53.45
2024-05-09T12:12:16.417Z,52.14
2024-05-09T12:13:16.418Z,52.30
2024-05-09T12:14:16.219Z,52.56
2024-05-09T12:15:16.227Z,52.52
2024-05-09T12:16:16.407Z,53.34
2024-05-09T12:17:16.206Z,53.02
2024-05-09T12:18:16.187Z,53.34
2024-05-09T12:19:16.106Z,52.93
2024-05-09T12:20:21.582Z,53.11
2024-05-09T12:21:16.028Z,53.02
2024-05-09T12:22:16.061Z,53.27
2024-05-09T12:23:15.981Z,52.82
2024-05-09T12:24:18.242Z,51.95
2024-05-09T12:25:16.182Z,52.24
2024-05-09T12:26:15.960Z,51.08
2024-05-09T12:27:15.884Z,51.17
2024-05-09T12:28:16.025Z,52.17
2024-05-09T12:29:15.853Z,51.92
2024-05-09T12:30:24.656Z,52.04
2024-05-09T12:31:15.841Z,51.87
2024-05-09T12:32:15.886Z,53.03
2024-05-09T12:33:15.929Z,52.96
2024-05-09T12:34:15.852Z,51.79
2024-05-09T12:35:15.806Z,51.83
2024-05-09T12:36:15.714Z,52.86
2024-05-09T12:37:15.768Z,53.53
2024-05-09T12:38:15.738Z,53.99
2024-05-09T12:39:15.651Z,52.29
2024-05-09T12:40:22.989Z,52.33
2024-05-09T12:41:15.589Z,53.24
2024-05-09T12:42:26.405Z,54.05
2024-05-09T12:43:15.653Z,52.44
2024-05-09T12:44:15.522Z,52.66
2024-05-09T12:45:15.577Z,53.00
2024-05-09T12:46:15.520Z,53.84
2024-05-09T12:47:15.511Z,53.12
2024-05-09T12:48:15.586Z,52.70
2024-05-09T12:49:18.707Z,53.77
2024-05-09T12:50:22.390Z,54.19
2024-05-09T12:51:15.357Z,54.03
2024-05-09T12:52:15.425Z,53.82
2024-05-09T12:53:15.321Z,51.66
2024-05-09T12:54:15.300Z,52.63
2024-05-09T12:55:15.392Z,52.75
2024-05-09T12:56:15.200Z,52.61
2024-05-09T12:57:15.165Z,52.75
2024-05-09T12:58:15.305Z,52.33